Time;durP1;ratioP1;P1;durP2;ratioP2;P2;SDS_P1;SDS_P2;PMS_P1;PMS_P2;Temp;Humidity;BMP_temperature;BMP_pressure;BME280_temperature;BME280_humidity;BME280_pressure;Samples;Min_cycle;Max_cycle;Signal;HPM_P1;HPM_P2
2021/03/30 00:01:09;;;;;;;;;;;12.10;99.90;;;;;;5077391;28;20589;-70
2021/03/30 00:03:35;;;;;;;;;;;12.00;99.90;;;;;;5079189;28;19958;-69
2021/03/30 00:06:00;;;;;;;;;;;12.00;99.90;;;;;;5076556;28;19908;-68
2021/03/30 00:08:26;;;;;;;;;;;12.00;99.90;;;;;;5079667;28;19995;-69
2021/03/30 00:10:52;;;;;;;;;;;12.10;99.90;;;;;;5055355;28;20022;-68
2021/03/30 00:13:17;;;;;;;;;;;12.10;99.90;;;;;;5079023;28;19923;-72
2021/03/30 00:15:43;;;;;;;;;;;12.10;99.90;;;;;;5061272;28;19915;-69
2021/03/30 00:18:09;;;;;;;;;;;12.10;99.90;;;;;;5084294;28;20303;-68
2021/03/30 00:20:34;;;;;;;;;;;12.20;99.90;;;;;;5090820;28;19960;-70
2021/03/30 00:23:00;;;;;;;;;;;12.20;99.90;;;;;;5095186;28;20035;-69
2021/03/30 00:25:25;;;;;;;;;;;12.20;99.90;;;;;;5094914;28;20065;-70
2021/03/30 00:27:51;;;;;;;;;;;12.20;99.90;;;;;;5094540;28;19904;-68
2021/03/30 00:30:17;;;;;;;;;;;12.20;99.90;;;;;;5094115;28;19915;-71
2021/03/30 00:32:43;;;;;;;;;;;12.20;99.90;;;;;;5093618;28;19904;-69
2021/03/30 00:35:09;;;;;;;;;;;12.20;99.90;;;;;;5094111;28;20042;-68
2021/03/30 00:37:35;;;;;;;;;;;12.20;99.90;;;;;;5069166;28;20219;-68
2021/03/30 00:40:01;;;;;;;;;;;12.20;99.90;;;;;;5082767;28;19904;-70
2021/03/30 00:42:26;;;;;;;;;;;12.20;99.90;;;;;;5065293;28;19911;-73
2021/03/30 00:44:52;;;;;;;;;;;12.20;99.90;;;;;;5086504;28;19908;-75
2021/03/30 00:47:19;;;;;;;;;;;12.10;99.90;;;;;;5095038;28;19912;-73
2021/03/30 00:49:45;;;;;;;;;;;12.10;99.90;;;;;;5068268;28;19903;-72
2021/03/30 00:52:10;;;;;;;;;;;12.10;99.90;;;;;;5094427;28;20285;-71
2021/03/30 00:54:36;;;;;;;;;;;12.10;99.90;;;;;;5094921;28;19943;-72
2021/03/30 00:57:03;;;;;;;;;;;12.00;99.90;;;;;;5096028;28;20011;-73
2021/03/30 00:59:29;;;;;;;;;;;11.90;99.90;;;;;;5088341;28;19904;-71
2021/03/30 01:01:57;;;;;;;;;;;;;;;;;;5091145;28;19974;-73
2021/03/30 01:04:25;;;;;;;;;;;;;;;;;;5090431;28;19998;-70
2021/03/30 01:06:51;;;;;;;;;;;11.60;99.90;;;;;;5062135;28;20372;-70
2021/03/30 01:09:35;;;;;;;;;;;11.90;99.90;;;;;;5073082;28;19905;-69
2021/03/30 01:12:24;;;;;;;;;;;11.80;99.90;;;;;;5067655;28;19908;-69
2021/03/30 01:15:01;;;;;;;;;;;11.80;99.90;;;;;;5086171;28;19927;-70
2021/03/30 01:17:45;;;;;;;;;;;11.90;99.90;;;;;;5074128;28;19908;-70
2021/03/30 01:20:31;;;;;;;;;;;11.80;99.90;;;;;;5077913;28;19947;-69
2021/03/30 01:23:15;;;;;;;;;;;11.80;99.90;;;;;;5091881;28;19953;-68
2021/03/30 01:25:43;;;;;;;;;;;11.80;99.90;;;;;;5093788;28;20007;-73
2021/03/30 01:28:19;;;;;;;;;;;11.80;99.90;;;;;;5093703;28;19914;-69
2021/03/30 01:30:46;;;;;;;;;;;11.80;99.90;;;;;;5094137;28;19907;-68
2021/03/30 01:33:13;;;;;;;;;;;11.90;99.90;;;;;;5093907;28;19911;-69
2021/03/30 01:35:40;;;;;;;;;;;11.90;99.90;;;;;;5093734;28;19904;-71
2021/03/30 01:38:07;;;;;;;;;;;11.90;99.90;;;;;;5093298;28;20354;-69
2021/03/30 01:40:34;;;;;;;;;;;11.90;99.90;;;;;;5093896;28;20401;-69
2021/03/30 01:43:01;;;;;;;;;;;11.90;99.90;;;;;;5093594;28;19904;-69
2021/03/30 01:45:27;;;;;;;;;;;11.90;99.90;;;;;;5093500;28;20382;-70
2021/03/30 01:47:53;;;;;;;;;;;12.00;99.90;;;;;;5093866;28;20044;-69
2021/03/30 01:50:19;;;;;;;;;;;11.90;99.90;;;;;;5093594;28;19951;-69
2021/03/30 01:52:45;;;;;;;;;;;11.90;99.90;;;;;;5092491;28;20006;-69
2021/03/30 01:55:13;;;;;;;;;;;11.90;99.90;;;;;;5093908;28;20265;-68
2021/03/30 01:57:38;;;;;;;;;;;11.90;99.90;;;;;;5093367;28;20353;-68
2021/03/30 02:00:08;;;;;;;;;;;11.80;99.90;;;;;;5092999;28;19911;-68
2021/03/30 02:02:34;;;;;;;;;;;11.90;99.90;;;;;;5093165;28;19964;-71
2021/03/30 02:05:00;;;;;;;;;;;11.90;99.90;;;;;;5093046;28;20373;-69
2021/03/30 02:07:27;;;;;;;;;;;11.90;99.90;;;;;;5068304;28;19912;-68
2021/03/30 02:09:56;;;;;;;;;;;11.90;99.90;;;;;;5086676;28;19908;-69
2021/03/30 02:12:29;;;;;;;;;;;12.00;99.90;;;;;;5075236;28;19908;-68
2021/03/30 02:14:55;;;;;;;;;;;12.00;99.90;;;;;;5063091;28;19904;-69
2021/03/30 02:17:30;;;;;;;;;;;12.00;99.90;;;;;;5091604;28;20338;-71
2021/03/30 02:20:14;;;;;;;;;;;12.00;99.90;;;;;;5085262;28;19904;-70
2021/03/30 02:22:45;;;;;;;;;;;12.00;99.90;;;;;;5089333;28;20376;-70
2021/03/30 02:25:11;;;;;;;;;;;12.00;99.90;;;;;;5071426;28;19916;-72
2021/03/30 02:27:40;;;;;;;;;;;12.00;99.90;;;;;;5072574;28;19911;-69
2021/03/30 02:30:07;;;;;;;;;;;12.00;99.90;;;;;;5073312;28;19904;-70
2021/03/30 02:32:34;;;;;;;;;;;12.00;99.90;;;;;;5072996;28;19914;-70
2021/03/30 02:35:02;;;;;;;;;;;12.10;99.90;;;;;;5072674;28;19904;-71
2021/03/30 02:37:28;;;;;;;;;;;12.00;99.90;;;;;;5073209;28;19965;-71
2021/03/30 02:39:54;;;;;;;;;;;12.00;99.90;;;;;;5072813;28;19908;-69
2021/03/30 02:42:19;;;;;;;;;;;12.10;99.90;;;;;;5072635;28;19904;-70
2021/03/30 02:44:46;;;;;;;;;;;12.10;99.90;;;;;;5072854;28;19931;-70
2021/03/30 02:47:13;;;;;;;;;;;12.10;99.90;;;;;;5072845;28;19909;-70
2021/03/30 02:49:40;;;;;;;;;;;12.10;99.90;;;;;;5072303;28;19905;-71
2021/03/30 02:52:06;;;;;;;;;;;12.10;99.90;;;;;;5073499;28;19928;-69
2021/03/30 02:54:31;;;;;;;;;;;12.00;99.90;;;;;;5060161;28;19912;-70
2021/03/30 02:56:59;;;;;;;;;;;12.00;99.90;;;;;;5071310;28;19904;-69
2021/03/30 02:59:26;;;;;;;;;;;12.10;99.90;;;;;;5071763;28;20334;-71
2021/03/30 03:01:52;;;;;;;;;;;12.10;99.90;;;;;;5072590;28;19910;-72
2021/03/30 03:04:19;;;;;;;;;;;;;;;;;;5074405;28;19912;-70
2021/03/30 03:06:45;;;;;;;;;;;11.90;99.90;;;;;;5076220;28;19930;-69
2021/03/30 03:09:12;;;;;;;;;;;12.10;99.90;;;;;;5076031;28;19908;-70
2021/03/30 03:11:39;;;;;;;;;;;12.00;99.90;;;;;;5076339;28;19950;-69
2021/03/30 03:14:06;;;;;;;;;;;12.00;99.90;;;;;;5076348;28;19909;-70
2021/03/30 03:16:32;;;;;;;;;;;12.10;99.90;;;;;;5076221;28;19916;-69
2021/03/30 03:18:58;;;;;;;;;;;12.10;99.90;;;;;;5076312;28;19909;-69
2021/03/30 03:21:24;;;;;;;;;;;12.30;99.90;;;;;;5062220;28;20254;-70
2021/03/30 03:23:50;;;;;;;;;;;12.10;99.90;;;;;;5075638;28;20357;-71
2021/03/30 03:26:16;;;;;;;;;;;11.70;99.90;;;;;;5090575;28;19916;-70
2021/03/30 03:28:42;;;;;;;;;;;12.10;99.90;;;;;;5068353;28;19904;-71
2021/03/30 03:31:08;;;;;;;;;;;12.20;99.90;;;;;;5073660;28;20396;-70
2021/03/30 03:33:34;;;;;;;;;;;12.10;99.90;;;;;;5096383;28;19910;-70
2021/03/30 03:36:00;;;;;;;;;;;12.00;99.90;;;;;;5096076;28;20359;-70
2021/03/30 03:38:26;;;;;;;;;;;12.00;99.90;;;;;;5095683;28;19946;-70
2021/03/30 03:40:52;;;;;;;;;;;12.00;99.90;;;;;;5096233;28;19965;-70
2021/03/30 03:43:18;;;;;;;;;;;12.10;99.90;;;;;;5095993;28;19908;-70
2021/03/30 03:45:43;;;;;;;;;;;12.00;99.90;;;;;;5067425;28;19912;-70
2021/03/30 03:48:09;;;;;;;;;;;12.00;99.90;;;;;;5091758;28;19927;-70
2021/03/30 03:50:34;;;;;;;;;;;12.10;99.90;;;;;;5095447;28;19904;-71
2021/03/30 03:53:00;;;;;;;;;;;12.00;99.90;;;;;;5095734;28;20417;-71
2021/03/30 03:55:27;;;;;;;;;;;12.00;99.90;;;;;;5095984;28;19991;-71
2021/03/30 03:58:01;;;;;;;;;;;12.00;99.90;;;;;;5094800;28;19998;-71
2021/03/30 04:00:27;;;;;;;;;;;11.90;99.90;;;;;;5090349;28;20026;-69
2021/03/30 04:02:53;;;;;;;;;;;11.90;99.90;;;;;;5089779;28;20002;-68
2021/03/30 04:05:20;;;;;;;;;;;11.90;99.90;;;;;;5086268;28;20002;-70
2021/03/30 04:07:52;;;;;;;;;;;11.80;99.90;;;;;;5089781;28;19904;-70
2021/03/30 04:10:19;;;;;;;;;;;11.80;99.90;;;;;;5089754;28;19977;-70
2021/03/30 04:12:44;;;;;;;;;;;11.80;99.90;;;;;;5074671;28;19911;-71
2021/03/30 04:15:10;;;;;;;;;;;11.80;99.90;;;;;;5088558;28;20380;-70
2021/03/30 04:17:36;;;;;;;;;;;11.90;99.90;;;;;;5089138;28;19999;-70
2021/03/30 04:20:09;;;;;;;;;;;11.80;99.90;;;;;;5090701;28;20440;-70
2021/03/30 04:22:34;;;;;;;;;;;11.80;99.90;;;;;;5095137;28;20258;-70
2021/03/30 04:25:00;;;;;;;;;;;11.70;99.90;;;;;;5095075;28;19926;-71
2021/03/30 04:27:25;;;;;;;;;;;11.70;99.90;;;;;;5095241;28;20370;-70
2021/03/30 04:29:51;;;;;;;;;;;11.70;99.90;;;;;;5076820;28;19903;-70
2021/03/30 04:32:16;;;;;;;;;;;11.70;99.90;;;;;;5095155;28;19946;-70
2021/03/30 04:34:45;;;;;;;;;;;;;;;;;;5094923;28;19908;-70
2021/03/30 04:37:11;;;;;;;;;;;;;;;;;;5094814;28;20006;-70
2021/03/30 04:39:36;;;;;;;;;;;;;;;;;;5094515;28;19974;-70
2021/03/30 04:42:02;;;;;;;;;;;11.60;99.90;;;;;;5094974;28;20357;-70
2021/03/30 04:44:28;;;;;;;;;;;12.30;99.90;;;;;;5076589;28;19923;-70
2021/03/30 04:46:53;;;;;;;;;;;11.80;99.90;;;;;;5094361;28;19994;-70
2021/03/30 04:49:19;;;;;;;;;;;11.80;99.90;;;;;;5094617;28;19904;-70
2021/03/30 04:51:45;;;;;;;;;;;11.70;99.90;;;;;;5093921;28;19954;-71
2021/03/30 04:54:10;;;;;;;;;;;11.80;99.90;;;;;;5092671;28;19932;-72
2021/03/30 04:56:37;;;;;;;;;;;11.60;99.90;;;;;;5091635;28;19904;-70
2021/03/30 04:59:03;;;;;;;;;;;11.60;99.90;;;;;;5093387;28;20032;-71
2021/03/30 05:01:29;;;;;;;;;;;12.00;99.90;;;;;;5093008;28;20353;-70
2021/03/30 05:03:54;;;;;;;;;;;11.70;99.90;;;;;;5091476;28;20040;-70
2021/03/30 05:06:20;;;;;;;;;;;11.80;99.90;;;;;;5093067;28;19908;-70
2021/03/30 05:08:46;;;;;;;;;;;12.10;99.90;;;;;;5091407;28;19904;-70
2021/03/30 05:11:11;;;;;;;;;;;11.80;99.90;;;;;;5092907;28;20007;-75
2021/03/30 05:13:37;;;;;;;;;;;11.90;99.90;;;;;;5091948;28;19911;-69
2021/03/30 05:16:03;;;;;;;;;;;11.80;99.90;;;;;;5092635;28;20403;-70
2021/03/30 05:18:28;;;;;;;;;;;11.90;99.90;;;;;;5092800;28;20277;-68
2021/03/30 05:20:54;;;;;;;;;;;12.00;99.90;;;;;;5074467;28;19904;-69
2021/03/30 05:23:20;;;;;;;;;;;12.10;99.90;;;;;;5093959;28;19911;-68
2021/03/30 05:25:45;;;;;;;;;;;11.90;99.90;;;;;;5094103;28;19916;-68
2021/03/30 05:28:11;;;;;;;;;;;12.00;99.90;;;;;;5093632;28;20350;-70
2021/03/30 05:30:37;;;;;;;;;;;12.00;99.90;;;;;;5093492;28;19910;-70
2021/03/30 05:33:02;;;;;;;;;;;12.00;99.90;;;;;;5094054;28;19911;-70
2021/03/30 05:35:28;;;;;;;;;;;12.10;99.90;;;;;;5093537;28;20373;-68
2021/03/30 05:37:53;;;;;;;;;;;11.80;99.90;;;;;;5093981;28;20374;-69
2021/03/30 05:40:20;;;;;;;;;;;12.20;99.90;;;;;;5092933;28;19961;-69
2021/03/30 05:42:46;;;;;;;;;;;12.10;99.90;;;;;;5075426;28;19969;-69
2021/03/30 05:45:12;;;;;;;;;;;12.30;99.90;;;;;;5093324;28;19908;-72
2021/03/30 05:47:38;;;;;;;;;;;12.40;99.90;;;;;;5093038;28;20002;-69
2021/03/30 05:50:10;;;;;;;;;;;12.10;99.90;;;;;;5092542;28;19943;-70
2021/03/30 05:53:19;;;;;;;;;;;12.90;99.30;;;;;;5093278;28;19904;-70
2021/03/30 05:55:29;;;;;;;;;;;13.10;96.80;;;;;;5071250;28;19904;-70
2021/03/30 05:57:55;;;;;;;;;;;13.20;95.50;;;;;;5092768;28;19910;-71
2021/03/30 06:00:22;;;;;;;;;;;13.40;96.30;;;;;;5092435;28;19911;-69
2021/03/30 06:02:50;;;;;;;;;;;13.40;92.20;;;;;;5093720;28;19914;-72
2021/03/30 06:05:16;;;;;;;;;;;13.70;94.60;;;;;;5091964;28;19916;-69
2021/03/30 06:07:42;;;;;;;;;;;13.60;90.10;;;;;;5092893;28;19915;-69
2021/03/30 06:10:09;;;;;;;;;;;14.00;87.00;;;;;;5092330;28;19957;-69
2021/03/30 06:12:35;;;;;;;;;;;13.70;89.70;;;;;;5093185;28;19988;-70
2021/03/30 06:15:02;;;;;;;;;;;13.90;94.10;;;;;;5092083;28;19944;-72
2021/03/30 06:17:28;;;;;;;;;;;13.80;99.90;;;;;;5090540;28;20361;-70
2021/03/30 06:19:57;;;;;;;;;;;13.80;99.90;;;;;;5083028;28;19957;-71
2021/03/30 06:22:25;;;;;;;;;;;13.80;99.90;;;;;;5087166;28;19911;-71
2021/03/30 06:24:52;;;;;;;;;;;14.00;99.90;;;;;;5078777;28;19908;-69
2021/03/30 06:27:22;;;;;;;;;;;14.00;99.70;;;;;;5093823;28;19904;-70
2021/03/30 06:29:49;;;;;;;;;;;13.90;96.70;;;;;;5093365;28;19904;-70
2021/03/30 06:32:16;;;;;;;;;;;13.80;99.90;;;;;;5082768;28;20032;-69
2021/03/30 06:34:43;;;;;;;;;;;13.90;98.60;;;;;;5088960;28;19911;-68
2021/03/30 06:37:27;;;;;;;;;;;13.90;97.20;;;;;;5077551;28;19916;-69
2021/03/30 06:40:03;;;;;;;;;;;14.20;99.20;;;;;;5089594;28;19912;-71
2021/03/30 06:42:56;;;;;;;;;;;14.30;99.30;;;;;;5095204;28;19912;-69
2021/03/30 06:45:22;;;;;;;;;;;14.30;99.90;;;;;;5090657;28;20042;-69
2021/03/30 06:47:49;;;;;;;;;;;14.00;99.90;;;;;;5091232;28;19911;-70
2021/03/30 06:50:20;;;;;;;;;;;14.00;99.90;;;;;;5067891;28;20413;-70
2021/03/30 06:52:45;;;;;;;;;;;14.10;99.90;;;;;;5096561;28;19935;-70
2021/03/30 06:55:12;;;;;;;;;;;13.90;99.90;;;;;;5092961;28;19928;-70
2021/03/30 06:57:45;;;;;;;;;;;14.00;99.90;;;;;;5091035;28;19915;-70
2021/03/30 07:00:29;;;;;;;;;;;14.10;99.90;;;;;;5087017;28;19923;-70
2021/03/30 07:02:56;;;;;;;;;;;14.10;99.90;;;;;;5095080;28;20323;-69
2021/03/30 07:05:25;;;;;;;;;;;14.00;99.90;;;;;;5094649;28;19919;-71
2021/03/30 07:07:52;;;;;;;;;;;14.10;99.90;;;;;;5090565;28;19916;-69
2021/03/30 07:10:18;;;;;;;;;;;14.30;99.90;;;;;;5089305;28;20275;-71
2021/03/30 07:12:43;;;;;;;;;;;14.30;99.90;;;;;;5091650;28;19957;-74
2021/03/30 07:15:09;;;;;;;;;;;;;;;;;;5091659;28;19943;-71
2021/03/30 07:17:36;;;;;;;;;;;14.60;99.90;;;;;;5095871;28;19904;-72
2021/03/30 07:20:04;;;;;;;;;;;14.80;99.90;;;;;;5092397;28;19923;-70
2021/03/30 07:22:31;;;;;;;;;;;14.80;99.90;;;;;;5092765;28;19959;-71
2021/03/30 07:25:01;;;;;;;;;;;14.90;99.90;;;;;;5095797;28;19923;-72
2021/03/30 07:27:29;;;;;;;;;;;15.00;88.30;;;;;;5090126;28;19948;-75
2021/03/30 07:29:56;;;;;;;;;;;15.00;86.60;;;;;;5093596;28;19916;-71
2021/03/30 07:32:21;;;;;;;;;;;15.20;90.00;;;;;;5087227;28;19948;-71
2021/03/30 07:35:00;;;;;;;;;;;15.10;91.70;;;;;;5086503;28;19963;-72
2021/03/30 07:37:44;;;;;;;;;;;15.20;91.10;;;;;;5085172;28;19911;-73
2021/03/30 07:40:10;;;;;;;;;;;15.20;90.40;;;;;;5059062;28;20372;-69
2021/03/30 07:42:40;;;;;;;;;;;15.60;90.60;;;;;;5087339;28;19915;-68
2021/03/30 07:45:07;;;;;;;;;;;15.80;99.90;;;;;;5092099;28;19912;-69
2021/03/30 07:47:34;;;;;;;;;;;16.10;99.90;;;;;;5092399;28;19916;-69
2021/03/30 07:49:59;;;;;;;;;;;16.10;84.50;;;;;;5091085;28;19927;-69
2021/03/30 07:52:29;;;;;;;;;;;15.90;75.50;;;;;;5093070;28;19909;-69
2021/03/30 07:55:13;;;;;;;;;;;16.10;75.70;;;;;;5093567;28;20388;-69
2021/03/30 07:57:58;;;;;;;;;;;16.40;94.30;;;;;;5093128;28;19961;-68
2021/03/30 08:00:44;;;;;;;;;;;16.60;92.90;;;;;;5093997;28;19983;-68
2021/03/30 08:03:14;;;;;;;;;;;16.80;91.20;;;;;;5092576;28;19914;-68
2021/03/30 08:05:40;;;;;;;;;;;16.40;89.80;;;;;;5074998;28;19915;-68
2021/03/30 08:08:20;;;;;;;;;;;16.50;90.00;;;;;;5094778;28;20324;-71
2021/03/30 08:10:45;;;;;;;;;;;16.60;88.70;;;;;;5071081;28;19911;-69
2021/03/30 08:13:20;;;;;;;;;;;16.70;88.20;;;;;;5095181;28;19903;-70
2021/03/30 08:15:47;;;;;;;;;;;16.70;88.00;;;;;;5089778;28;20263;-69
2021/03/30 08:18:14;;;;;;;;;;;16.60;86.40;;;;;;5092824;28;19908;-70
2021/03/30 08:20:56;;;;;;;;;;;16.50;85.60;;;;;;5094804;28;19955;-68
2021/03/30 08:23:21;;;;;;;;;;;16.40;88.60;;;;;;5083130;28;19951;-68
2021/03/30 08:25:50;;;;;;;;;;;16.60;90.30;;;;;;5094740;28;19951;-69
2021/03/30 08:28:34;;;;;;;;;;;16.70;90.80;;;;;;5081204;28;20369;-69
2021/03/30 08:31:00;;;;;;;;;;;16.80;91.40;;;;;;5094503;28;19950;-69
2021/03/30 08:33:32;;;;;;;;;;;16.80;91.30;;;;;;5094796;28;19943;-68
2021/03/30 08:36:16;;;;;;;;;;;16.80;91.00;;;;;;5094822;28;20365;-67
2021/03/30 08:38:48;;;;;;;;;;;16.90;89.80;;;;;;5082476;28;20368;-68
2021/03/30 08:41:33;;;;;;;;;;;16.90;89.70;;;;;;5062515;28;19925;-69
2021/03/30 08:44:14;;;;;;;;;;;17.20;83.60;;;;;;5094436;28;19999;-68
2021/03/30 08:46:40;;;;;;;;;;;17.30;76.40;;;;;;5093822;28;20343;-69
2021/03/30 08:49:24;;;;;;;;;;;17.20;76.00;;;;;;5093960;28;20357;-69
2021/03/30 08:51:51;;;;;;;;;;;17.10;84.70;;;;;;5093627;28;19904;-73
2021/03/30 08:54:16;;;;;;;;;;;17.30;86.20;;;;;;5076086;28;19904;-70
2021/03/30 08:56:43;;;;;;;;;;;17.30;60.00;;;;;;5093788;28;19904;-70
2021/03/30 08:59:09;;;;;;;;;;;17.40;60.30;;;;;;5093614;28;20403;-70
2021/03/30 09:01:35;;;;;;;;;;;17.60;66.20;;;;;;5093422;28;20399;-69
2021/03/30 09:04:01;;;;;;;;;;;18.10;62.20;;;;;;5094258;28;19907;-69
2021/03/30 09:06:28;;;;;;;;;;;17.90;70.50;;;;;;5093944;28;20358;-69
2021/03/30 09:08:53;;;;;;;;;;;17.70;57.30;;;;;;5091088;28;19915;-69
2021/03/30 09:11:20;;;;;;;;;;;17.70;57.70;;;;;;5093216;28;19904;-70
2021/03/30 09:13:58;;;;;;;;;;;17.70;56.70;;;;;;5091178;28;19912;-71
2021/03/30 09:16:24;;;;;;;;;;;17.80;56.60;;;;;;5092630;28;19904;-70
2021/03/30 09:18:51;;;;;;;;;;;17.90;56.80;;;;;;5090633;28;19910;-69
2021/03/30 09:21:23;;;;;;;;;;;17.90;56.80;;;;;;5076923;28;19904;-69
2021/03/30 09:23:49;;;;;;;;;;;17.90;57.10;;;;;;5076026;28;19912;-69
2021/03/30 09:26:25;;;;;;;;;;;18.00;55.80;;;;;;5092928;28;19916;-68
2021/03/30 09:28:51;;;;;;;;;;;18.20;56.60;;;;;;5090491;28;19926;-70
2021/03/30 09:31:18;;;;;;;;;;;18.10;56.20;;;;;;5086392;28;20343;-70
2021/03/30 09:33:46;;;;;;;;;;;18.40;55.40;;;;;;5091305;28;19928;-69
2021/03/30 09:36:15;;;;;;;;;;;18.50;54.90;;;;;;5086877;28;19910;-71
2021/03/30 09:38:48;;;;;;;;;;;18.60;55.30;;;;;;5075077;28;19911;-70
2021/03/30 09:41:13;;;;;;;;;;;18.90;57.40;;;;;;5071988;28;19937;-71
2021/03/30 09:43:39;;;;;;;;;;;19.10;55.30;;;;;;5081227;28;20023;-70
2021/03/30 09:46:05;;;;;;;;;;;19.20;54.00;;;;;;5083678;28;19956;-70
2021/03/30 09:48:33;;;;;;;48.57;32.20;;;19.00;53.20;;;;;;5062634;28;20436;-71
2021/03/30 09:50:59;;;;;;;;;;;19.10;53.00;;;;;;5092441;28;20032;-69
2021/03/30 09:53:38;;;;;;;;;;;18.80;53.60;;;;;;5061934;28;19910;-70
2021/03/30 09:56:04;;;;;;;37.13;28.73;;;18.70;53.40;;;;;;5089494;28;19912;-72
2021/03/30 09:58:30;;;;;;;;;;;19.40;55.70;;;;;;5087198;28;20020;-71
2021/03/30 10:00:56;;;;;;;53.20;33.90;;;19.80;60.00;;;;;;5072580;28;20406;-71
2021/03/30 10:03:23;;;;;;;;;;;19.20;59.10;;;;;;5090055;28;20481;-71
2021/03/30 10:05:49;;;;;;;;;;;18.80;58.40;;;;;;5084929;28;19920;-69
2021/03/30 10:08:20;;;;;;;;;;;19.00;60.80;;;;;;5082176;28;19957;-69
2021/03/30 10:10:47;;;;;;;;;;;19.10;55.60;;;;;;5084612;28;19904;-69
2021/03/30 10:13:34;;;;;;;47.40;32.10;;;18.90;58.50;;;;;;5087686;28;20431;-68
2021/03/30 10:16:01;;;;;;;;;;;18.90;56.40;;;;;;5092278;28;20118;-70
2021/03/30 10:18:28;;;;;;;;;;;18.90;55.10;;;;;;5092942;28;20007;-71
2021/03/30 10:20:55;;;;;;;;;;;18.80;57.50;;;;;;5093149;28;19949;-71
2021/03/30 10:23:24;;;;;;;;;;;18.80;56.80;;;;;;5076748;28;19950;-72
2021/03/30 10:25:50;;;;;;;;;;;18.90;56.80;;;;;;5096988;28;19916;-70
2021/03/30 10:28:25;;;;;;;;;;;18.80;56.80;;;;;;5081757;28;19908;-70
2021/03/30 10:30:58;;;;;;;;;;;18.80;56.40;;;;;;5084054;28;19947;-71
2021/03/30 10:33:34;;;;;;;;;;;18.80;54.90;;;;;;5087176;28;19931;-70
2021/03/30 10:36:00;;;;;;;;;;;18.90;55.30;;;;;;5078746;28;20362;-70
2021/03/30 10:38:26;;;;;;;;;;;18.80;55.30;;;;;;5094395;28;20323;-69
2021/03/30 10:41:01;;;;;;;;;;;18.90;55.80;;;;;;5096334;28;20045;-71
2021/03/30 10:43:27;;;;;;;;;;;18.80;55.60;;;;;;5063156;28;19998;-69
2021/03/30 10:45:53;;;;;;;;;;;18.70;56.60;;;;;;5095068;28;19999;-69
2021/03/30 10:48:19;;;;;;;;;;;18.50;56.80;;;;;;5094883;28;19919;-71
2021/03/30 10:50:45;;;;;;;;;;;18.60;56.80;;;;;;5076222;28;19995;-70
2021/03/30 10:53:12;;;;;;;;;;;18.70;57.10;;;;;;5065790;28;19908;-71
2021/03/30 10:55:38;;;;;;;;;;;18.70;55.60;;;;;;5095290;28;19911;-70
2021/03/30 10:58:09;;;;;;;;;;;18.90;56.80;;;;;;5095118;28;19904;-70
2021/03/30 11:00:36;;;;;;;;;;;19.00;55.90;;;;;;5095067;28;20350;-69
2021/03/30 11:03:01;;;;;;;;;;;18.90;56.90;;;;;;5076768;28;19945;-68
2021/03/30 11:05:27;;;;;;;;;;;19.10;56.50;;;;;;5094767;28;19931;-70
2021/03/30 11:07:53;;;;;;;;;;;19.10;56.90;;;;;;5094459;28;19912;-70
2021/03/30 11:10:21;;;;;;;;;;;19.10;57.40;;;;;;5094427;28;20012;-70
2021/03/30 11:12:46;;;;;;;;;;;19.10;56.90;;;;;;5095503;28;19927;-70
2021/03/30 11:15:12;;;;;;;;;;;19.10;57.60;;;;;;5094816;28;20462;-70
2021/03/30 11:17:38;;;;;;;;;;;19.00;60.00;;;;;;5077091;28;19911;-69
2021/03/30 11:20:05;;;;;;;;;;;19.10;60.90;;;;;;5095608;28;20330;-69
2021/03/30 11:22:31;;;;;;;;;;;19.20;60.10;;;;;;5096515;28;19912;-71
2021/03/30 11:25:00;;;;;;;;;;;19.20;60.00;;;;;;5095604;28;19916;-68
2021/03/30 11:27:26;;;;;;;;;;;19.40;59.10;;;;;;5091625;28;20068;-69
2021/03/30 11:30:06;;;;;;;;;;;19.30;58.70;;;;;;5076953;28;19915;-68
2021/03/30 11:39:51;;;;;;;;;;;19.00;58.50;;;;;;5091682;28;19912;-75
2021/03/30 11:42:17;;;;;;;;;;;19.00;56.00;;;;;;5092561;28;19908;-71
2021/03/30 11:44:43;;;;;;;;;;;19.00;52.60;;;;;;5077417;28;19948;-71
2021/03/30 11:47:09;;;;;;;;;;;18.80;52.60;;;;;;5095401;28;19962;-75
2021/03/30 11:49:35;;;;;;;;;;;18.80;52.50;;;;;;5094576;28;19916;-68
2021/03/30 11:52:01;;;;;;;;;;;18.70;52.70;;;;;;5055091;28;20277;-70
2021/03/30 11:54:30;;;;;;;;;;;18.90;52.40;;;;;;5084378;28;19904;-70
2021/03/30 11:56:56;;;;;;;;;;;19.00;52.50;;;;;;5091516;28;19904;-70
2021/03/30 11:59:21;;;;;;;;;;;19.00;52.30;;;;;;5078618;28;20003;-70
2021/03/30 12:01:47;;;;;;;;;;;19.30;52.40;;;;;;5083228;28;19911;-70
2021/03/30 12:04:13;;;;;;;;;;;19.60;51.90;;;;;;5094281;28;19908;-71
2021/03/30 12:06:39;;;;;;;;;;;19.50;52.00;;;;;;5094991;28;19923;-72
2021/03/30 12:09:05;;;;;;;50.63;33.17;;;19.80;52.90;;;;;;5074508;28;20718;-69
2021/03/30 12:11:31;;;;;;;;;;;19.90;52.90;;;;;;5076132;28;20031;-72
2021/03/30 12:13:57;;;;;;;;;;;19.90;53.20;;;;;;5081152;28;19904;-70
2021/03/30 12:16:23;;;;;;;;;;;19.80;53.00;;;;;;5084486;28;19911;-71
2021/03/30 12:18:49;;;;;;;;;;;19.70;52.50;;;;;;5076463;28;19973;-75
2021/03/30 12:21:14;;;;;;;;;;;19.90;52.00;;;;;;5089723;28;19912;-72
2021/03/30 12:23:40;;;;;;;;;;;19.80;51.80;;;;;;5094745;28;19904;-72
2021/03/30 12:26:06;;;;;;;;;;;19.70;51.80;;;;;;5092506;28;19916;-71
2021/03/30 12:28:31;;;;;;;;;;;19.90;51.60;;;;;;5093349;28;20289;-70
2021/03/30 12:30:57;;;;;;;;;;;20.10;55.90;;;;;;5090831;28;19904;-69
2021/03/30 12:33:22;;;;;;;;;;;20.10;65.40;;;;;;5091345;28;19965;-69
2021/03/30 12:35:48;;;;;;;;;;;20.30;52.90;;;;;;5089609;28;19908;-72
2021/03/30 12:38:14;;;;;;;;;;;20.20;52.70;;;;;;5083575;28;20315;-73
2021/03/30 12:40:40;;;;;;;;;;;20.50;51.60;;;;;;5089496;28;19908;-72
2021/03/30 12:43:06;;;;;;;;;;;20.40;51.40;;;;;;5093982;28;19911;-70
2021/03/30 12:45:35;;;;;;;;;;;20.50;50.50;;;;;;5094279;28;19916;-69
2021/03/30 12:48:01;;;;;;;;;;;20.40;50.00;;;;;;5092860;28;19964;-71
2021/03/30 12:50:27;;;;;;;;;;;;;;;;;;5093829;28;19904;-69
2021/03/30 12:52:52;;;;;;;;;;;;;;;;;;5094478;28;19911;-69
2021/03/30 12:55:18;;;;;;;;;;;20.90;62.50;;;;;;5094392;28;19904;-70
2021/03/30 12:57:44;;;;;;;;;;;20.70;65.30;;;;;;5093285;28;20010;-73
2021/03/30 13:00:10;;;;;;;;;;;21.00;61.80;;;;;;5073411;28;19995;-69
2021/03/30 13:02:35;;;;;;;;;;;20.90;63.10;;;;;;5077259;28;20010;-68
2021/03/30 13:05:01;;;;;;;;;;;21.70;60.80;;;;;;5084346;28;20638;-69
2021/03/30 13:07:27;;;;;;;;;;;21.00;65.90;;;;;;5092022;28;20265;-70
2021/03/30 13:09:52;;;;;;;;;;;20.70;66.50;;;;;;5092713;28;19908;-69
2021/03/30 13:12:22;;;;;;;35.27;28.77;;;20.90;67.10;;;;;;5081748;28;20449;-68
2021/03/30 13:14:47;;;;;;;;;;;20.90;66.30;;;;;;5091601;28;20038;-70
2021/03/30 13:17:13;;;;;;;;;;;20.80;66.70;;;;;;5090984;28;19911;-68
2021/03/30 13:19:39;;;;;;;28.60;25.60;;;20.70;64.70;;;;;;5087118;28;20777;-69
2021/03/30 13:22:05;;;;;;;;;;;20.60;65.60;;;;;;5092274;28;20104;-72
2021/03/30 13:24:38;;;;;;;38.75;30.08;;;20.40;66.60;;;;;;5090715;28;20422;-74
2021/03/30 13:27:05;;;;;;;;;;;20.40;66.20;;;;;;5092394;28;20176;-68
2021/03/30 13:29:31;;;;;;;37.58;29.58;;;20.60;69.00;;;;;;5084562;28;20390;-69
2021/03/30 13:31:56;;;;;;;;;;;20.60;66.80;;;;;;5084773;28;20068;-69
2021/03/30 13:34:22;;;;;;;40.50;30.77;;;20.50;67.00;;;;;;5063665;28;20440;-68
2021/03/30 13:36:49;;;;;;;;;;;20.50;66.70;;;;;;5074176;28;20438;-74
2021/03/30 13:39:15;;;;;;;46.50;32.80;;;20.50;69.90;;;;;;5082775;28;20384;-74
2021/03/30 13:41:47;;;;;;;;;;;19.70;65.00;;;;;;5084230;28;20028;-69
2021/03/30 13:44:12;;;;;;;36.33;29.08;;;20.30;63.20;;;;;;5082963;28;20374;-70
2021/03/30 13:46:38;;;;;;;;;;;20.50;63.80;;;;;;5091387;28;20032;-69
2021/03/30 13:49:16;;;;;;;46.47;32.87;;;20.80;63.50;;;;;;5071968;28;20481;-70
2021/03/30 13:51:47;;;;;;;;;;;21.00;65.10;;;;;;5074770;28;20462;-69
2021/03/30 13:54:38;;;;;;;49.00;33.42;;;21.10;63.80;;;;;;5070079;28;20389;-74
2021/03/30 13:57:04;;;;;;;;;;;21.00;74.10;;;;;;5053314;28;20086;-71
2021/03/30 13:59:31;;;;;;;48.13;33.13;;;20.40;69.20;;;;;;5073395;28;20763;-69
2021/03/30 14:01:56;;;;;;;;;;;20.70;69.90;;;;;;5078122;28;20029;-69
2021/03/30 14:04:24;;;;;;;45.33;32.13;;;20.50;65.30;;;;;;5072921;28;20941;-70
2021/03/30 14:06:55;;;;;;;;;;;20.80;65.40;;;;;;5078413;28;20073;-75
2021/03/30 14:09:23;;;;;;;51.15;34.05;;;21.30;68.80;;;;;;5074126;28;21118;-77
2021/03/30 14:11:55;;;;;;;30.10;25.70;;;20.40;67.70;;;;;;5077951;28;20047;-72
2021/03/30 14:14:35;;;;;;;;;;;19.70;70.10;;;;;;5071322;28;20106;-74
2021/03/30 14:17:05;;;;;;;51.47;34.08;;;20.20;68.60;;;;;;5087700;28;20406;-71
2021/03/30 14:22:02;;;;;;;;;;;20.00;69.00;;;;;;5092364;28;20072;-70
2021/03/30 14:24:59;;;;;;;43.95;31.75;;;20.20;69.00;;;;;;5090547;28;20414;-69
2021/03/30 14:27:26;;;;;;;;;;;20.70;69.60;;;;;;5060438;28;20123;-71
2021/03/30 14:29:53;;;;;;;56.38;35.35;;;20.90;73.00;;;;;;5068693;28;20726;-71